sensor_id;sensor_type;location;lat;lon;timestamp;temperature;humidity
14471;DHT22;7321;50.802;4.336;2024-01-06T00:00:56;7.50;99.90
14471;DHT22;7321;50.802;4.336;2024-01-06T00:03:47;7.60;99.90
14471;DHT22;7321;50.802;4.336;2024-01-06T00:06:28;7.70;99.90
14471;DHT22;7321;50.802;4.336;2024-01-06T00:13:27;7.70;99.90
14471;DHT22;7321;50.802;4.336;2024-01-06T00:30:13;7.40;99.90
14471;DHT22;7321;50.802;4.336;2024-01-06T00:33:17;7.50;99.90
14471;DHT22;7321;50.802;4.336;2024-01-06T00:36:23;7.60;99.90
14471;DHT22;7321;50.802;4.336;2024-01-06T00:38:49;7.70;99.90
14471;DHT22;7321;50.802;4.336;2024-01-06T00:42:25;7.70;99.90
14471;DHT22;7321;50.802;4.336;2024-01-06T00:44:51;7.40;99.90
14471;DHT22;7321;50.802;4.336;2024-01-06T00:47:20;7.50;99.90
14471;DHT22;7321;50.802;4.336;2024-01-06T00:49:53;7.60;99.90
14471;DHT22;7321;50.802;4.336;2024-01-06T00:52:22;7.60;99.90
14471;DHT22;7321;50.802;4.336;2024-01-06T00:57:54;7.60;99.90
14471;DHT22;7321;50.802;4.336;2024-01-06T01:00:24;7.60;99.90
14471;DHT22;7321;50.802;4.336;2024-01-06T01:05:56;7.90;99.90
14471;DHT22;7321;50.802;4.336;2024-01-06T01:08:27;7.90;99.90
14471;DHT22;7321;50.802;4.336;2024-01-06T01:11:09;8.00;99.90
14471;DHT22;7321;50.802;4.336;2024-01-06T01:13:48;7.90;99.90
14471;DHT22;7321;50.802;4.336;2024-01-06T01:20:06;7.90;99.90
14471;DHT22;7321;50.802;4.336;2024-01-06T01:22:54;8.00;99.90
14471;DHT22;7321;50.802;4.336;2024-01-06T01:25:58;8.10;99.90
14471;DHT22;7321;50.802;4.336;2024-01-06T01:32:02;8.00;99.90
14471;DHT22;7321;50.802;4.336;2024-01-06T01:35:19;8.00;99.90
14471;DHT22;7321;50.802;4.336;2024-01-06T01:37:50;7.80;99.90
14471;DHT22;7321;50.802;4.336;2024-01-06T01:40:28;7.80;99.90
14471;DHT22;7321;50.802;4.336;2024-01-06T01:43:15;7.80;99.90
14471;DHT22;7321;50.802;4.336;2024-01-06T01:46:51;7.80;99.90
14471;DHT22;7321;50.802;4.336;2024-01-06T01:49:35;7.70;99.90
14471;DHT22;7321;50.802;4.336;2024-01-06T01:53:16;7.90;99.90
14471;DHT22;7321;50.802;4.336;2024-01-06T02:04:33;8.20;99.90
14471;DHT22;7321;50.802;4.336;2024-01-06T02:07:44;8.20;99.90
14471;DHT22;7321;50.802;4.336;2024-01-06T02:10:34;8.00;99.90
14471;DHT22;7321;50.802;4.336;2024-01-06T02:13:56;7.90;99.90
14471;DHT22;7321;50.802;4.336;2024-01-06T02:26:19;8.10;99.90
14471;DHT22;7321;50.802;4.336;2024-01-06T02:29:02;8.00;99.90
14471;DHT22;7321;50.802;4.336;2024-01-06T02:31:32;7.90;99.90
14471;DHT22;7321;50.802;4.336;2024-01-06T02:38:02;7.90;99.90
14471;DHT22;7321;50.802;4.336;2024-01-06T02:40:52;8.00;99.90
14471;DHT22;7321;50.802;4.336;2024-01-06T02:43:37;7.90;99.90
14471;DHT22;7321;50.802;4.336;2024-01-06T02:46:22;8.00;99.90
14471;DHT22;7321;50.802;4.336;2024-01-06T02:48:52;7.80;99.90
14471;DHT22;7321;50.802;4.336;2024-01-06T02:54:21;8.10;99.90
14471;DHT22;7321;50.802;4.336;2024-01-06T02:56:51;8.20;99.90
14471;DHT22;7321;50.802;4.336;2024-01-06T02:59:39;8.10;99.90
14471;DHT22;7321;50.802;4.336;2024-01-06T03:02:20;7.90;99.90
14471;DHT22;7321;50.802;4.336;2024-01-06T03:09:04;7.70;99.90
14471;DHT22;7321;50.802;4.336;2024-01-06T03:11:59;7.70;99.90
14471;DHT22;7321;50.802;4.336;2024-01-06T03:18:05;7.70;99.90
14471;DHT22;7321;50.802;4.336;2024-01-06T03:20:45;7.70;99.90
14471;DHT22;7321;50.802;4.336;2024-01-06T03:26:35;7.60;99.90
14471;DHT22;7321;50.802;4.336;2024-01-06T03:29:36;7.50;99.90
14471;DHT22;7321;50.802;4.336;2024-01-06T03:32:31;7.60;99.90
14471;DHT22;7321;50.802;4.336;2024-01-06T03:35:28;7.70;99.90
14471;DHT22;7321;50.802;4.336;2024-01-06T03:38:53;7.70;99.90
14471;DHT22;7321;50.802;4.336;2024-01-06T03:45:49;7.70;99.90
14471;DHT22;7321;50.802;4.336;2024-01-06T03:55:41;8.00;99.90
14471;DHT22;7321;50.802;4.336;2024-01-06T03:58:43;8.20;99.90
14471;DHT22;7321;50.802;4.336;2024-01-06T04:07:50;8.20;99.90
14471;DHT22;7321;50.802;4.336;2024-01-06T04:10:48;7.90;99.90
14471;DHT22;7321;50.802;4.336;2024-01-06T04:16:40;7.70;99.90
14471;DHT22;7321;50.802;4.336;2024-01-06T04:19:09;7.60;99.90
14471;DHT22;7321;50.802;4.336;2024-01-06T04:25:20;7.50;99.90
14471;DHT22;7321;50.802;4.336;2024-01-06T04:27:57;7.50;99.90
14471;DHT22;7321;50.802;4.336;2024-01-06T04:31:15;7.70;99.90
14471;DHT22;7321;50.802;4.336;2024-01-06T04:34:33;7.80;99.90
14471;DHT22;7321;50.802;4.336;2024-01-06T04:41:05;7.60;99.90
14471;DHT22;7321;50.802;4.336;2024-01-06T04:44:05;7.60;99.90
14471;DHT22;7321;50.802;4.336;2024-01-06T04:47:24;7.70;99.90
14471;DHT22;7321;50.802;4.336;2024-01-06T05:18:17;7.70;99.90
14471;DHT22;7321;50.802;4.336;2024-01-06T05:21:12;7.60;99.90
14471;DHT22;7321;50.802;4.336;2024-01-06T05:23:43;7.60;99.90
14471;DHT22;7321;50.802;4.336;2024-01-06T05:26:18;7.80;99.90
14471;DHT22;7321;50.802;4.336;2024-01-06T05:33:10;7.60;99.90
14471;DHT22;7321;50.802;4.336;2024-01-06T05:36:07;7.60;99.90
14471;DHT22;7321;50.802;4.336;2024-01-06T06:06:03;7.70;99.90
14471;DHT22;7321;50.802;4.336;2024-01-06T06:49:18;6.80;99.90
14471;DHT22;7321;50.802;4.336;2024-01-06T06:55:26;7.20;99.90
14471;DHT22;7321;50.802;4.336;2024-01-06T07:05:31;7.30;99.90
14471;DHT22;7321;50.802;4.336;2024-01-06T07:13:25;7.40;99.90
14471;DHT22;7321;50.802;4.336;2024-01-06T07:38:23;6.60;99.90
14471;DHT22;7321;50.802;4.336;2024-01-06T07:41:25;6.50;99.90
14471;DHT22;7321;50.802;4.336;2024-01-06T07:44:56;6.50;99.90
14471;DHT22;7321;50.802;4.336;2024-01-06T07:48:27;6.50;99.90
14471;DHT22;7321;50.802;4.336;2024-01-06T07:51:31;6.50;99.90
14471;DHT22;7321;50.802;4.336;2024-01-06T07:53:57;6.60;99.90
14471;DHT22;7321;50.802;4.336;2024-01-06T07:56:24;6.40;99.90
14471;DHT22;7321;50.802;4.336;2024-01-06T07:58:50;6.40;99.90
14471;DHT22;7321;50.802;4.336;2024-01-06T08:01:17;6.50;99.90
14471;DHT22;7321;50.802;4.336;2024-01-06T08:03:43;6.70;99.90
14471;DHT22;7321;50.802;4.336;2024-01-06T08:06:10;6.60;99.90
14471;DHT22;7321;50.802;4.336;2024-01-06T08:08:36;6.50;99.90
14471;DHT22;7321;50.802;4.336;2024-01-06T08:11:02;6.40;99.90
14471;DHT22;7321;50.802;4.336;2024-01-06T08:13:29;6.40;99.90
14471;DHT22;7321;50.802;4.336;2024-01-06T08:15:59;6.60;99.90
14471;DHT22;7321;50.802;4.336;2024-01-06T08:18:28;6.90;99.90
14471;DHT22;7321;50.802;4.336;2024-01-06T08:20:59;6.90;99.90
14471;DHT22;7321;50.802;4.336;2024-01-06T08:23:28;7.00;99.90
14471;DHT22;7321;50.802;4.336;2024-01-06T08:25:54;7.10;99.90
14471;DHT22;7321;50.802;4.336;2024-01-06T08:28:20;6.90;99.90
14471;DHT22;7321;50.802;4.336;2024-01-06T08:30:55;6.80;99.90
14471;DHT22;7321;50.802;4.336;2024-01-06T08:33:21;6.70;99.90
14471;DHT22;7321;50.802;4.336;2024-01-06T08:35:47;6.60;99.90
14471;DHT22;7321;50.802;4.336;2024-01-06T08:38:16;6.30;99.90
14471;DHT22;7321;50.802;4.336;2024-01-06T08:40:43;6.40;99.90
14471;DHT22;7321;50.802;4.336;2024-01-06T08:43:11;6.40;99.90
14471;DHT22;7321;50.802;4.336;2024-01-06T08:45:40;6.50;99.90
14471;DHT22;7321;50.802;4.336;2024-01-06T08:48:06;6.60;99.90
14471;DHT22;7321;50.802;4.336;2024-01-06T08:50:33;6.70;99.90
14471;DHT22;7321;50.802;4.336;2024-01-06T08:52:59;6.70;99.90
14471;DHT22;7321;50.802;4.336;2024-01-06T08:55:25;6.50;99.90
14471;DHT22;7321;50.802;4.336;2024-01-06T08:57:53;6.40;99.90
14471;DHT22;7321;50.802;4.336;2024-01-06T09:00:19;6.40;99.90
14471;DHT22;7321;50.802;4.336;2024-01-06T09:02:46;6.30;99.90
14471;DHT22;7321;50.802;4.336;2024-01-06T09:05:12;6.40;99.90
14471;DHT22;7321;50.802;4.336;2024-01-06T09:07:39;6.40;99.90
14471;DHT22;7321;50.802;4.336;2024-01-06T09:10:06;6.60;99.90
14471;DHT22;7321;50.802;4.336;2024-01-06T09:12:32;6.70;99.90
14471;DHT22;7321;50.802;4.336;2024-01-06T09:14:59;6.70;99.90
14471;DHT22;7321;50.802;4.336;2024-01-06T09:17:25;6.50;99.90
14471;DHT22;7321;50.802;4.336;2024-01-06T09:19:51;6.70;99.90
14471;DHT22;7321;50.802;4.336;2024-01-06T09:22:19;6.50;99.90
14471;DHT22;7321;50.802;4.336;2024-01-06T09:24:52;6.60;99.90
14471;DHT22;7321;50.802;4.336;2024-01-06T09:27:19;6.30;99.90
14471;DHT22;7321;50.802;4.336;2024-01-06T09:29:45;6.30;99.90
14471;DHT22;7321;50.802;4.336;2024-01-06T09:32:14;6.10;99.90
14471;DHT22;7321;50.802;4.336;2024-01-06T09:34:39;6.00;99.90
14471;DHT22;7321;50.802;4.336;2024-01-06T09:37:05;6.00;99.90
14471;DHT22;7321;50.802;4.336;2024-01-06T09:39:31;5.90;99.90
14471;DHT22;7321;50.802;4.336;2024-01-06T09:42:00;6.00;99.90
14471;DHT22;7321;50.802;4.336;2024-01-06T09:44:27;6.10;99.90
14471;DHT22;7321;50.802;4.336;2024-01-06T09:46:54;6.20;99.90
14471;DHT22;7321;50.802;4.336;2024-01-06T09:49:23;6.20;99.90
14471;DHT22;7321;50.802;4.336;2024-01-06T09:51:50;6.20;99.90
14471;DHT22;7321;50.802;4.336;2024-01-06T09:54:23;6.20;99.90
14471;DHT22;7321;50.802;4.336;2024-01-06T09:56:54;6.50;99.90
14471;DHT22;7321;50.802;4.336;2024-01-06T09:59:21;6.60;99.90
14471;DHT22;7321;50.802;4.336;2024-01-06T10:01:53;6.40;99.90
14471;DHT22;7321;50.802;4.336;2024-01-06T10:04:19;6.50;99.90
14471;DHT22;7321;50.802;4.336;2024-01-06T10:06:49;6.30;99.90
14471;DHT22;7321;50.802;4.336;2024-01-06T10:09:30;6.10;99.90
14471;DHT22;7321;50.802;4.336;2024-01-06T10:11:57;6.10;99.90
14471;DHT22;7321;50.802;4.336;2024-01-06T10:14:24;6.20;99.90
14471;DHT22;7321;50.802;4.336;2024-01-06T10:16:52;6.20;99.90
14471;DHT22;7321;50.802;4.336;2024-01-06T10:19:18;6.10;99.90
14471;DHT22;7321;50.802;4.336;2024-01-06T10:21:49;6.10;99.90
14471;DHT22;7321;50.802;4.336;2024-01-06T10:24:19;6.20;99.90
14471;DHT22;7321;50.802;4.336;2024-01-06T10:26:46;6.00;99.90
14471;DHT22;7321;50.802;4.336;2024-01-06T10:29:17;6.10;99.90
14471;DHT22;7321;50.802;4.336;2024-01-06T10:31:43;6.10;99.90
14471;DHT22;7321;50.802;4.336;2024-01-06T10:34:08;6.00;99.90
14471;DHT22;7321;50.802;4.336;2024-01-06T10:36:35;5.90;99.90
14471;DHT22;7321;50.802;4.336;2024-01-06T10:39:03;6.00;99.90
14471;DHT22;7321;50.802;4.336;2024-01-06T10:41:30;5.90;99.90
14471;DHT22;7321;50.802;4.336;2024-01-06T10:44:03;5.70;99.90
14471;DHT22;7321;50.802;4.336;2024-01-06T10:46:37;5.60;99.90
14471;DHT22;7321;50.802;4.336;2024-01-06T10:49:05;5.80;99.90
14471;DHT22;7321;50.802;4.336;2024-01-06T10:51:37;6.00;99.90
14471;DHT22;7321;50.802;4.336;2024-01-06T10:54:05;6.10;99.90
14471;DHT22;7321;50.802;4.336;2024-01-06T10:56:37;6.10;99.90
14471;DHT22;7321;50.802;4.336;2024-01-06T10:59:12;6.20;99.90
14471;DHT22;7321;50.802;4.336;2024-01-06T11:01:39;5.90;99.90
14471;DHT22;7321;50.802;4.336;2024-01-06T11:04:05;6.10;99.90
14471;DHT22;7321;50.802;4.336;2024-01-06T11:06:33;6.20;99.90
14471;DHT22;7321;50.802;4.336;2024-01-06T11:09:16;6.30;99.90
14471;DHT22;7321;50.802;4.336;2024-01-06T11:11:44;6.40;99.90
14471;DHT22;7321;50.802;4.336;2024-01-06T11:14:25;6.30;99.90
14471;DHT22;7321;50.802;4.336;2024-01-06T11:16:51;6.30;99.90
14471;DHT22;7321;50.802;4.336;2024-01-06T11:24:48;6.00;99.90
14471;DHT22;7321;50.802;4.336;2024-01-06T11:27:26;5.80;99.90
14471;DHT22;7321;50.802;4.336;2024-01-06T11:29:55;5.50;99.90
14471;DHT22;7321;50.802;4.336;2024-01-06T11:35:11;5.40;99.90
14471;DHT22;7321;50.802;4.336;2024-01-06T11:43:09;5.70;99.90
14471;DHT22;7321;50.802;4.336;2024-01-06T11:45:37;5.70;99.90
14471;DHT22;7321;50.802;4.336;2024-01-06T11:48:05;5.80;99.90
14471;DHT22;7321;50.802;4.336;2024-01-06T11:50:33;5.80;99.90
14471;DHT22;7321;50.802;4.336;2024-01-06T11:53:00;5.80;99.90
14471;DHT22;7321;50.802;4.336;2024-01-06T11:55:26;5.70;99.90
14471;DHT22;7321;50.802;4.336;2024-01-06T11:57:58;5.60;99.90
14471;DHT22;7321;50.802;4.336;2024-01-06T12:00:31;5.80;99.90
14471;DHT22;7321;50.802;4.336;2024-01-06T12:02:58;5.70;99.90
14471;DHT22;7321;50.802;4.336;2024-01-06T12:05:25;5.50;99.90
14471;DHT22;7321;50.802;4.336;2024-01-06T12:07:59;5.50;99.90
14471;DHT22;7321;50.802;4.336;2024-01-06T12:10:26;5.50;99.90
14471;DHT22;7321;50.802;4.336;2024-01-06T12:12:59;5.50;99.90
14471;DHT22;7321;50.802;4.336;2024-01-06T12:15:25;5.50;99.90
14471;DHT22;7321;50.802;4.336;2024-01-06T12:17:51;5.50;99.90
14471;DHT22;7321;50.802;4.336;2024-01-06T12:20:18;5.40;99.90
14471;DHT22;7321;50.802;4.336;2024-01-06T12:22:44;5.50;99.90
14471;DHT22;7321;50.802;4.336;2024-01-06T12:25:10;5.40;99.90
14471;DHT22;7321;50.802;4.336;2024-01-06T12:27:40;5.40;99.90
14471;DHT22;7321;50.802;4.336;2024-01-06T12:30:15;5.30;99.90
14471;DHT22;7321;50.802;4.336;2024-01-06T12:32:48;5.30;99.90
14471;DHT22;7321;50.802;4.336;2024-01-06T12:35:15;5.50;99.90
14471;DHT22;7321;50.802;4.336;2024-01-06T12:37:42;5.50;99.90
14471;DHT22;7321;50.802;4.336;2024-01-06T12:40:16;5.50;99.90
14471;DHT22;7321;50.802;4.336;2024-01-06T12:42:43;5.30;99.90
14471;DHT22;7321;50.802;4.336;2024-01-06T12:45:09;5.20;99.90
14471;DHT22;7321;50.802;4.336;2024-01-06T12:47:36;5.10;99.90
14471;DHT22;7321;50.802;4.336;2024-01-06T12:50:02;5.30;99.90
14471;DHT22;7321;50.802;4.336;2024-01-06T12:52:30;5.30;99.90
14471;DHT22;7321;50.802;4.336;2024-01-06T12:54:59;5.20;99.90
14471;DHT22;7321;50.802;4.336;2024-01-06T12:57:27;5.20;99.90
14471;DHT22;7321;50.802;4.336;2024-01-06T12:59:53;5.30;99.90
14471;DHT22;7321;50.802;4.336;2024-01-06T13:02:20;5.40;99.90
14471;DHT22;7321;50.802;4.336;2024-01-06T13:04:46;5.30;99.90
14471;DHT22;7321;50.802;4.336;2024-01-06T13:07:12;5.30;99.90
14471;DHT22;7321;50.802;4.336;2024-01-06T13:09:39;5.50;99.90
14471;DHT22;7321;50.802;4.336;2024-01-06T13:12:06;5.50;99.90
14471;DHT22;7321;50.802;4.336;2024-01-06T13:14:32;5.50;99.90
14471;DHT22;7321;50.802;4.336;2024-01-06T13:16:57;5.60;99.90
14471;DHT22;7321;50.802;4.336;2024-01-06T13:19:24;5.40;99.90
14471;DHT22;7321;50.802;4.336;2024-01-06T13:21:53;5.50;99.90
14471;DHT22;7321;50.802;4.336;2024-01-06T13:24:21;5.50;99.90
14471;DHT22;7321;50.802;4.336;2024-01-06T13:26:47;5.50;99.90
14471;DHT22;7321;50.802;4.336;2024-01-06T13:29:13;5.60;99.90
14471;DHT22;7321;50.802;4.336;2024-01-06T13:31:39;5.50;99.90
14471;DHT22;7321;50.802;4.336;2024-01-06T13:34:05;5.50;99.90
14471;DHT22;7321;50.802;4.336;2024-01-06T13:36:31;5.50;99.90
14471;DHT22;7321;50.802;4.336;2024-01-06T13:38:57;5.50;99.90
14471;DHT22;7321;50.802;4.336;2024-01-06T13:41:25;5.60;99.90
14471;DHT22;7321;50.802;4.336;2024-01-06T13:43:51;5.60;99.90
14471;DHT22;7321;50.802;4.336;2024-01-06T13:46:17;5.60;99.90
14471;DHT22;7321;50.802;4.336;2024-01-06T13:48:42;5.60;99.90
14471;DHT22;7321;50.802;4.336;2024-01-06T13:51:09;5.50;99.90
14471;DHT22;7321;50.802;4.336;2024-01-06T13:53:35;5.60;99.90
14471;DHT22;7321;50.802;4.336;2024-01-06T13:56:01;5.70;99.90
14471;DHT22;7321;50.802;4.336;2024-01-06T13:58:28;5.70;99.90
14471;DHT22;7321;50.802;4.336;2024-01-06T14:00:54;5.60;99.90
14471;DHT22;7321;50.802;4.336;2024-01-06T14:03:20;5.50;99.90
14471;DHT22;7321;50.802;4.336;2024-01-06T14:05:47;5.50;99.90
14471;DHT22;7321;50.802;4.336;2024-01-06T14:08:13;5.70;99.90
14471;DHT22;7321;50.802;4.336;2024-01-06T14:10:39;5.80;99.90
14471;DHT22;7321;50.802;4.336;2024-01-06T14:13:05;5.60;99.90
14471;DHT22;7321;50.802;4.336;2024-01-06T14:15:33;5.50;99.90
14471;DHT22;7321;50.802;4.336;2024-01-06T14:18:03;5.40;99.90
14471;DHT22;7321;50.802;4.336;2024-01-06T14:20:29;5.30;99.90
14471;DHT22;7321;50.802;4.336;2024-01-06T14:22:57;5.30;99.90
14471;DHT22;7321;50.802;4.336;2024-01-06T14:25:24;5.30;99.90
14471;DHT22;7321;50.802;4.336;2024-01-06T14:27:50;5.30;99.90
14471;DHT22;7321;50.802;4.336;2024-01-06T14:30:16;5.40;99.90
14471;DHT22;7321;50.802;4.336;2024-01-06T14:32:42;5.50;99.90
14471;DHT22;7321;50.802;4.336;2024-01-06T14:35:08;5.50;99.90
14471;DHT22;7321;50.802;4.336;2024-01-06T14:37:37;5.60;99.90
14471;DHT22;7321;50.802;4.336;2024-01-06T14:40:06;5.70;99.90
14471;DHT22;7321;50.802;4.336;2024-01-06T14:42:32;5.70;99.90
14471;DHT22;7321;50.802;4.336;2024-01-06T14:45:00;5.60;99.90
14471;DHT22;7321;50.802;4.336;2024-01-06T14:47:26;5.60;99.90
14471;DHT22;7321;50.802;4.336;2024-01-06T14:49:52;5.70;99.90
14471;DHT22;7321;50.802;4.336;2024-01-06T14:52:18;5.70;99.90
14471;DHT22;7321;50.802;4.336;2024-01-06T14:54:44;5.80;99.90
14471;DHT22;7321;50.802;4.336;2024-01-06T14:57:10;5.60;99.90
14471;DHT22;7321;50.802;4.336;2024-01-06T14:59:36;5.50;99.90
14471;DHT22;7321;50.802;4.336;2024-01-06T15:02:03;5.40;99.90
14471;DHT22;7321;50.802;4.336;2024-01-06T15:04:29;5.50;99.90
14471;DHT22;7321;50.802;4.336;2024-01-06T15:06:55;5.50;99.90
14471;DHT22;7321;50.802;4.336;2024-01-06T15:09:21;5.40;99.90
14471;DHT22;7321;50.802;4.336;2024-01-06T15:11:49;5.40;99.90
14471;DHT22;7321;50.802;4.336;2024-01-06T15:14:15;5.40;99.90
14471;DHT22;7321;50.802;4.336;2024-01-06T15:16:41;5.30;99.90
14471;DHT22;7321;50.802;4.336;2024-01-06T15:19:09;5.30;99.90
14471;DHT22;7321;50.802;4.336;2024-01-06T15:21:37;5.30;99.90
14471;DHT22;7321;50.802;4.336;2024-01-06T15:24:03;5.50;99.90
14471;DHT22;7321;50.802;4.336;2024-01-06T15:26:29;5.30;99.90
14471;DHT22;7321;50.802;4.336;2024-01-06T15:28:56;5.40;99.90
14471;DHT22;7321;50.802;4.336;2024-01-06T15:31:24;5.40;99.90
14471;DHT22;7321;50.802;4.336;2024-01-06T15:33:50;5.20;99.90
14471;DHT22;7321;50.802;4.336;2024-01-06T15:36:47;5.30;99.90
14471;DHT22;7321;50.802;4.336;2024-01-06T15:39:42;5.40;99.90
14471;DHT22;7321;50.802;4.336;2024-01-06T15:43:00;5.40;99.90
14471;DHT22;7321;50.802;4.336;2024-01-06T15:46:04;5.40;99.90
14471;DHT22;7321;50.802;4.336;2024-01-06T15:49:08;5.30;99.90
14471;DHT22;7321;50.802;4.336;2024-01-06T15:51:46;5.30;99.90
14471;DHT22;7321;50.802;4.336;2024-01-06T15:54:21;5.30;99.90
14471;DHT22;7321;50.802;4.336;2024-01-06T15:56:50;5.40;99.90
14471;DHT22;7321;50.802;4.336;2024-01-06T16:03:04;5.30;99.90
14471;DHT22;7321;50.802;4.336;2024-01-06T16:05:52;5.20;99.90
14471;DHT22;7321;50.802;4.336;2024-01-06T16:08:18;5.20;99.90
14471;DHT22;7321;50.802;4.336;2024-01-06T16:10:47;5.30;99.90
14471;DHT22;7321;50.802;4.336;2024-01-06T16:13:32;5.30;99.90
14471;DHT22;7321;50.802;4.336;2024-01-06T16:16:01;5.40;99.90
14471;DHT22;7321;50.802;4.336;2024-01-06T16:18:35;5.30;99.90
14471;DHT22;7321;50.802;4.336;2024-01-06T16:21:07;5.30;99.90
14471;DHT22;7321;50.802;4.336;2024-01-06T16:23:58;5.40;99.90
14471;DHT22;7321;50.802;4.336;2024-01-06T16:26:27;5.40;99.90
14471;DHT22;7321;50.802;4.336;2024-01-06T16:29:19;5.40;99.90
14471;DHT22;7321;50.802;4.336;2024-01-06T16:31:48;5.30;99.90
14471;DHT22;7321;50.802;4.336;2024-01-06T16:34:17;5.30;99.90
14471;DHT22;7321;50.802;4.336;2024-01-06T16:45:28;5.50;99.90
14471;DHT22;7321;50.802;4.336;2024-01-06T16:48:12;5.60;99.90
14471;DHT22;7321;50.802;4.336;2024-01-06T16:50:44;5.40;99.90
14471;DHT22;7321;50.802;4.336;2024-01-06T16:53:53;5.40;99.90
14471;DHT22;7321;50.802;4.336;2024-01-06T16:59:26;5.40;99.90
14471;DHT22;7321;50.802;4.336;2024-01-06T17:01:57;5.40;99.90
14471;DHT22;7321;50.802;4.336;2024-01-06T17:05:11;5.40;99.90
14471;DHT22;7321;50.802;4.336;2024-01-06T17:10:16;5.30;99.90
14471;DHT22;7321;50.802;4.336;2024-01-06T17:12:45;5.30;99.90
14471;DHT22;7321;50.802;4.336;2024-01-06T17:15:27;5.40;99.90
14471;DHT22;7321;50.802;4.336;2024-01-06T17:18:02;5.40;99.90
14471;DHT22;7321;50.802;4.336;2024-01-06T17:20:30;5.30;99.90
14471;DHT22;7321;50.802;4.336;2024-01-06T17:23:09;5.40;99.90
14471;DHT22;7321;50.802;4.336;2024-01-06T17:25:35;5.50;99.90
14471;DHT22;7321;50.802;4.336;2024-01-06T17:28:01;5.40;99.90
14471;DHT22;7321;50.802;4.336;2024-01-06T17:30:27;5.40;99.90
14471;DHT22;7321;50.802;4.336;2024-01-06T17:32:54;5.40;99.90
14471;DHT22;7321;50.802;4.336;2024-01-06T17:35:19;5.30;99.90
14471;DHT22;7321;50.802;4.336;2024-01-06T17:37:46;5.30;99.90
14471;DHT22;7321;50.802;4.336;2024-01-06T17:40:13;5.30;99.90
14471;DHT22;7321;50.802;4.336;2024-01-06T17:42:39;5.20;99.90
14471;DHT22;7321;50.802;4.336;2024-01-06T17:45:05;5.20;99.90
14471;DHT22;7321;50.802;4.336;2024-01-06T17:47:31;5.40;99.90
14471;DHT22;7321;50.802;4.336;2024-01-06T17:50:00;5.30;99.90
14471;DHT22;7321;50.802;4.336;2024-01-06T17:52:28;5.30;99.90
14471;DHT22;7321;50.802;4.336;2024-01-06T17:54:54;5.20;99.90
14471;DHT22;7321;50.802;4.336;2024-01-06T17:57:21;5.10;99.90
14471;DHT22;7321;50.802;4.336;2024-01-06T17:59:48;5.20;99.90
14471;DHT22;7321;50.802;4.336;2024-01-06T18:02:48;5.30;99.90
14471;DHT22;7321;50.802;4.336;2024-01-06T18:07:48;5.20;99.90
14471;DHT22;7321;50.802;4.336;2024-01-06T18:10:14;5.10;99.90
14471;DHT22;7321;50.802;4.336;2024-01-06T18:12:41;5.20;99.90
14471;DHT22;7321;50.802;4.336;2024-01-06T18:15:10;5.20;99.90
14471;DHT22;7321;50.802;4.336;2024-01-06T18:17:38;5.10;99.90
14471;DHT22;7321;50.802;4.336;2024-01-06T18:20:08;5.20;99.90
14471;DHT22;7321;50.802;4.336;2024-01-06T18:26:01;5.30;99.90
14471;DHT22;7321;50.802;4.336;2024-01-06T18:28:36;5.40;99.90
14471;DHT22;7321;50.802;4.336;2024-01-06T18:31:02;5.40;99.90
14471;DHT22;7321;50.802;4.336;2024-01-06T18:33:37;5.50;99.90
14471;DHT22;7321;50.802;4.336;2024-01-06T18:36:08;5.30;99.90
14471;DHT22;7321;50.802;4.336;2024-01-06T18:38:56;5.20;99.90
14471;DHT22;7321;50.802;4.336;2024-01-06T18:41:25;5.10;99.90
14471;DHT22;7321;50.802;4.336;2024-01-06T18:43:54;5.10;99.90
14471;DHT22;7321;50.802;4.336;2024-01-06T18:46:23;5.10;99.90
14471;DHT22;7321;50.802;4.336;2024-01-06T18:48:57;5.20;99.90
14471;DHT22;7321;50.802;4.336;2024-01-06T18:51:52;5.10;99.90
14471;DHT22;7321;50.802;4.336;2024-01-06T18:54:30;4.90;99.90
14471;DHT22;7321;50.802;4.336;2024-01-06T18:57:08;4.80;99.90
14471;DHT22;7321;50.802;4.336;2024-01-06T19:02:46;4.80;99.90
14471;DHT22;7321;50.802;4.336;2024-01-06T19:09:24;4.80;99.90
14471;DHT22;7321;50.802;4.336;2024-01-06T19:12:10;4.90;99.90
14471;DHT22;7321;50.802;4.336;2024-01-06T19:14:39;4.90;99.90
14471;DHT22;7321;50.802;4.336;2024-01-06T19:17:25;5.00;99.90
14471;DHT22;7321;50.802;4.336;2024-01-06T19:19:51;5.00;99.90
14471;DHT22;7321;50.802;4.336;2024-01-06T19:22:51;4.90;99.90
14471;DHT22;7321;50.802;4.336;2024-01-06T19:29:05;5.00;99.90
14471;DHT22;7321;50.802;4.336;2024-01-06T19:31:43;5.20;99.90
14471;DHT22;7321;50.802;4.336;2024-01-06T19:34:09;5.20;99.90
14471;DHT22;7321;50.802;4.336;2024-01-06T19:39:19;4.80;99.90
14471;DHT22;7321;50.802;4.336;2024-01-06T19:41:45;5.00;99.90
14471;DHT22;7321;50.802;4.336;2024-01-06T19:44:13;4.90;99.90
14471;DHT22;7321;50.802;4.336;2024-01-06T19:46:43;4.80;99.90
14471;DHT22;7321;50.802;4.336;2024-01-06T19:49:29;4.70;99.90
14471;DHT22;7321;50.802;4.336;2024-01-06T19:55:00;4.80;99.90
14471;DHT22;7321;50.802;4.336;2024-01-06T19:57:35;4.90;99.90
14471;DHT22;7321;50.802;4.336;2024-01-06T20:00:10;4.70;99.90
14471;DHT22;7321;50.802;4.336;2024-01-06T20:02:48;4.70;99.90
14471;DHT22;7321;50.802;4.336;2024-01-06T20:05:34;4.80;99.90
14471;DHT22;7321;50.802;4.336;2024-01-06T20:08:26;4.80;99.90
14471;DHT22;7321;50.802;4.336;2024-01-06T20:10:55;4.70;99.90
14471;DHT22;7321;50.802;4.336;2024-01-06T20:13:52;4.60;99.90
14471;DHT22;7321;50.802;4.336;2024-01-06T20:16:29;4.70;99.90
14471;DHT22;7321;50.802;4.336;2024-01-06T20:32:36;4.70;99.90
14471;DHT22;7321;50.802;4.336;2024-01-06T20:35:11;4.70;99.90
14471;DHT22;7321;50.802;4.336;2024-01-06T20:37:51;4.80;99.90
14471;DHT22;7321;50.802;4.336;2024-01-06T20:40:22;4.80;99.90
14471;DHT22;7321;50.802;4.336;2024-01-06T20:43:09;4.80;99.90
14471;DHT22;7321;50.802;4.336;2024-01-06T20:45:48;4.60;99.90
14471;DHT22;7321;50.802;4.336;2024-01-06T20:48:38;4.70;99.90
14471;DHT22;7321;50.802;4.336;2024-01-06T20:51:25;4.60;99.90
14471;DHT22;7321;50.802;4.336;2024-01-06T20:54:30;4.60;99.90
14471;DHT22;7321;50.802;4.336;2024-01-06T21:03:34;4.30;99.90
14471;DHT22;7321;50.802;4.336;2024-01-06T21:06:04;4.40;99.90
14471;DHT22;7321;50.802;4.336;2024-01-06T21:08:44;4.20;99.90
14471;DHT22;7321;50.802;4.336;2024-01-06T21:14:44;4.10;99.90
14471;DHT22;7321;50.802;4.336;2024-01-06T21:17:48;4.20;99.90
14471;DHT22;7321;50.802;4.336;2024-01-06T21:30:31;4.30;99.90
14471;DHT22;7321;50.802;4.336;2024-01-06T21:33:33;4.30;99.90
14471;DHT22;7321;50.802;4.336;2024-01-06T21:35:59;4.30;99.90
14471;DHT22;7321;50.802;4.336;2024-01-06T21:38:33;4.40;99.90
14471;DHT22;7321;50.802;4.336;2024-01-06T21:41:54;4.30;99.90
14471;DHT22;7321;50.802;4.336;2024-01-06T21:44:38;4.20;99.90
14471;DHT22;7321;50.802;4.336;2024-01-06T21:47:07;4.00;99.90
14471;DHT22;7321;50.802;4.336;2024-01-06T21:49:33;3.90;99.90
14471;DHT22;7321;50.802;4.336;2024-01-06T21:52:26;3.90;99.90
14471;DHT22;7321;50.802;4.336;2024-01-06T21:54:58;3.90;99.90
14471;DHT22;7321;50.802;4.336;2024-01-06T21:57:26;3.90;99.90
14471;DHT22;7321;50.802;4.336;2024-01-06T21:59:59;3.90;99.90
14471;DHT22;7321;50.802;4.336;2024-01-06T22:02:33;4.10;99.90
14471;DHT22;7321;50.802;4.336;2024-01-06T22:05:19;4.10;99.90
14471;DHT22;7321;50.802;4.336;2024-01-06T22:08:26;4.00;99.90
14471;DHT22;7321;50.802;4.336;2024-01-06T22:11:01;3.60;99.90
14471;DHT22;7321;50.802;4.336;2024-01-06T22:13:33;3.50;99.90
14471;DHT22;7321;50.802;4.336;2024-01-06T22:16:12;3.50;99.90